Brandon Municipal Airport
CYBR : now visible

Airfield :











YOU CAN JOIN US ON...

 
LOGIN :

Register | Disclaimer

   EN    FR    IT 

 









Legend :    VFR   Marginal VFR   IFR   Intensive IFR   Very Intensive IFR
Visi :
Ceiling :
>= 8 km
>= 3000ft
5 to 8 km
1000 to 3000 ft
1500m to 5 km
500 to 1000 ft
800 to 1500m
200 to 500 ft
< 800m
< 200 ft
Symbols :   Thunderstorms  Fog  Heavy snow  Heavy precipitations  Wind > 20 kt







- Airport Elevation : 1343 ft
- IATA code : YBR


CYBR - Brandon Municipal

CURRENT METAR :
  • 211100Z 05006KT 15SM FEW220 03/M03 A3011 RMK CI1 CI TR SLP209

EXPIRED METARs :
  • 211000Z 04007KT 15SM FEW220 04/M02 A3011 RMK CI1 CI TR SLP209
  • 210900Z 04006KT 15SM SKC 05/M03 A3010 RMK SLP206

TAF TAF CYBR
Valid from the 21 at 06:00 until the 21 at 18:00 UTC


210538Z 2106/2118 06008KT P6SM FEW250
BECMG 2108/2110 VRB03KT
BECMG 2113/2115 08010KT
FM211700 09015KT P6SM SCT170 RMK NXT FCST BY 211200Z
CZWG FIR / North America



MET'MAP, your aeronautical weather chart ! - Copyright ORBIFLY December 2007 - Disclaimer

ORBIFLY MET'MAP TEAM :

Programming & Development : Alexandra Zaïnal
Concept & Development : Baudouin d'Aumeries
Co-Development & Prog : Marc-Olivier Méhu
Technical & hardware support : Manuel Goepfert

Contact : metmap@orbifly.com




SOURCES & CREDITS :

   NOAA       Earth
Advisory